Terminal Aerodrome Forecast
Issued by NWS Upton, NY

Home | Current Version | Previous Version | Text Only | Print | Product List | Glossary On
Versions: 1 2 3 4 5 6 7 8 9 10 11 12 13 14 15 16 17 18 19 20 21 22 23 24
331
FTUS41 KOKX 131732
TAFISP
TAF
KISP 131732Z 1318/1418 30022G37KT P6SM SCT050
      TEMPO 1318/1322 BKN035
     FM140200 31018G29KT P6SM SKC
     FM140800 31015G23KT P6SM SKC=

USA.gov is the U.S. government's official web portal to all federal, state and local government web resources and services.